Sprague, Connecticut
Current Conditions -  °F | °C
As of 4:09 AM on Monday 24 Nov 2014 (Local Time) from KIJD Reporting Station
Light Rain Light Rain  
Wind Chill: 39°   Ceiling: 600
Heat Index: 42°   Visibility: 2.5mi
Dew Point: 40°   Wind: 5mph
Humidity: 92%   Direction: NA
Pressure: 29.91"   Gusts: NA
Location:  41.6375°N, 72.0613°W
Report Text: KIJD 240909Z AUTO VRB04KT 2 1/2SM -RA BR OVC006 06/04 A2991 RMK AO2 P0001 T00560044
Loading
Personal Weather Stations






























Interactive Weather Map New forecast layout! Learn more

10-Day Weather Forecast

Advertisements
Track Severe Weather on mobile